Time;durP1;ratioP1;P1;durP2;ratioP2;P2;SDS_P1;SDS_P2;PMS_P1;PMS_P2;Temp;Humidity;BMP_temperature;BMP_pressure;BME280_temperature;BME280_humidity;BME280_pressure;Samples;Min_cycle;Max_cycle;Signal;HPM_P1;HPM_P2
2021/12/19 00:00:26;;;;;;;;;6.75;5.50;;;;;6.54;51.15;101480.31;146618;573;46016;-74
2021/12/19 00:03:47;;;;;;;;;13.50;12.50;;;;;6.51;50.12;101469.78;146621;600;46010;-75
2021/12/19 00:09:49;;;;;;;;;10.00;9.00;;;;;6.45;51.01;101466.72;146623;645;46010;-75
2021/12/19 00:12:41;;;;;;;;;6.00;5.00;;;;;6.43;50.65;101474.31;146619;579;46016;-75
2021/12/19 00:15:33;;;;;;;;;5.00;4.00;;;;;6.43;49.66;101479.47;146622;611;46020;-84
2021/12/19 00:18:26;;;;;;;;;9.25;4.50;;;;;6.38;49.00;101485.91;146616;642;46014;-88
2021/12/19 00:21:19;;;;;;;;;4.00;3.25;;;;;6.43;50.15;101481.16;146611;565;47010;-86
2021/12/19 00:24:12;;;;;;;;;4.25;3.00;;;;;6.45;50.14;101490.78;146619;648;46016;-89
2021/12/19 00:27:04;;;;;;;;;4.75;3.50;;;;;6.48;49.80;101490.16;146622;595;46020;-85
2021/12/19 00:29:56;;;;;;;;;4.75;3.00;;;;;6.51;49.75;101489.47;146617;589;46017;-86
2021/12/19 00:32:48;;;;;;;;;6.00;6.00;;;;;6.48;51.08;101467.84;146622;586;46021;-86
2021/12/19 00:35:41;;;;;;;;;10.75;10.75;;;;;6.37;48.66;101466.09;146618;600;46016;-79
2021/12/19 00:38:33;;;;;;;;;2.50;1.00;;;;;6.34;49.28;101471.00;146612;591;46021;-81
2021/12/19 00:41:26;;;;;;;;;2.25;1.75;;;;;6.32;48.37;101476.78;146615;586;46016;-79
2021/12/19 00:44:22;;;;;;;;;2.25;2.25;;;;;6.35;49.11;101483.09;146618;584;46020;-82
2021/12/19 00:47:15;;;;;;;;;5.00;4.75;;;;;6.38;49.55;101482.44;146616;607;46014;-81
2021/12/19 00:50:07;;;;;;;;;1.75;1.00;;;;;6.42;48.86;101492.22;146617;583;46020;-80
2021/12/19 00:53:00;;;;;;;;;3.00;3.00;;;;;6.44;49.79;101494.13;146618;615;46013;-80
2021/12/19 00:55:52;;;;;;;;;3.00;3.00;;;;;6.45;50.05;101495.06;146619;625;46020;-81
2021/12/19 00:58:45;;;;;;;;;2.25;2.25;;;;;6.46;49.75;101502.88;146620;691;46016;-83
2021/12/19 01:01:37;;;;;;;;;1.75;1.75;;;;;6.46;48.37;101495.16;146622;587;46011;-85
2021/12/19 01:04:29;;;;;;;;;3.50;3.25;;;;;6.50;49.72;101496.31;146618;602;46012;-79
2021/12/19 01:07:22;;;;;;;;;1.25;1.00;;;;;6.52;47.92;101492.19;146625;616;45020;-78
2021/12/19 01:10:14;;;;;;;;;5.75;4.25;;;;;6.55;49.33;101486.38;146619;572;46016;-78
2021/12/19 01:13:06;;;;;;;;;2.00;2.00;;;;;6.56;49.18;101496.78;146620;574;46014;-79
2021/12/19 01:16:01;;;;;;;;;3.00;2.00;;;;;6.59;48.82;101490.97;146618;589;46017;-82
2021/12/19 01:18:53;;;;;;;;;1.00;1.00;;;;;6.57;47.94;101508.88;146615;618;47010;-82
2021/12/19 01:21:46;;;;;;;;;1.50;1.00;;;;;6.58;47.95;101510.72;146616;574;46014;-77
2021/12/19 01:24:38;;;;;;;;;2.00;2.00;;;;;6.57;47.56;101501.16;146621;649;46021;-81
2021/12/19 01:27:30;;;;;;;;;0.75;0.75;;;;;6.55;47.32;101495.00;146616;611;46033;-80
2021/12/19 01:30:22;;;;;;;;;2.00;2.00;;;;;6.56;47.64;101495.91;146624;570;46010;-89
2021/12/19 01:33:15;;;;;;;;;1.00;1.00;;;;;6.58;47.80;101486.62;146618;674;46012;-90
2021/12/19 01:36:08;;;;;;;;;3.75;2.00;;;;;6.60;48.08;101482.47;146620;596;46020;-83
2021/12/19 01:39:00;;;;;;;;;8.50;6.75;;;;;6.63;48.66;101480.13;146618;612;46914;-88
2021/12/19 01:41:58;;;;;;;;;14.50;12.25;;;;;6.63;47.79;101480.13;146621;571;46010;-87
2021/12/19 01:44:53;;;;;;;;;10.00;8.25;;;;;6.62;48.76;101479.22;146612;608;46015;-90
2021/12/19 01:47:45;;;;;;;;;7.75;3.00;;;;;6.62;47.78;101476.66;146610;630;46010;-86
2021/12/19 01:50:38;;;;;;;;;7.25;6.75;;;;;6.63;48.50;101483.59;146619;587;46012;-86
2021/12/19 01:53:30;;;;;;;;;2.75;2.00;;;;;6.64;48.84;101482.84;146623;629;46011;-86
2021/12/19 01:56:22;;;;;;;;;3.50;2.00;;;;;6.67;47.09;101474.47;146617;590;46016;-87
2021/12/19 01:59:15;;;;;;;;;2.25;2.25;;;;;6.69;49.32;101484.09;146621;588;46020;-90
2021/12/19 02:02:08;;;;;;;;;8.50;4.00;;;;;6.67;49.33;101471.88;146617;583;46016;-78
2021/12/19 02:05:00;;;;;;;;;3.00;1.00;;;;;6.64;47.20;101472.53;146622;578;46010;-74
2021/12/19 02:07:53;;;;;;;;;3.75;2.50;;;;;6.65;49.12;101478.59;146617;581;46017;-80
2021/12/19 02:10:46;;;;;;;;;3.00;3.00;;;;;6.63;49.65;101475.88;146623;627;45020;-76
2021/12/19 02:13:38;;;;;;;;;3.75;3.00;;;;;6.65;49.73;101476.91;146615;570;46017;-76
2021/12/19 02:16:30;;;;;;;;;4.25;3.25;;;;;6.67;51.94;101477.03;146615;698;46021;-75
2021/12/19 02:19:24;;;;;;;;;6.00;5.00;;;;;6.67;52.75;101477.03;146618;604;46016;-75
2021/12/19 02:22:16;;;;;;;;;2.00;2.00;;;;;6.64;53.30;101475.13;146622;597;46010;-74
2021/12/19 02:25:10;;;;;;;;;4.50;2.50;;;;;6.61;53.22;101472.28;146620;590;46012;-75
2021/12/19 02:28:02;;;;;;;;;5.75;3.75;;;;;6.62;53.39;101468.03;146619;587;46020;-82
2021/12/19 02:30:55;;;;;;;;;4.50;2.00;;;;;6.62;54.63;101465.47;146619;586;46012;-81
2021/12/19 02:34:01;;;;;;;;;7.50;5.00;;;;;6.63;54.24;101464.66;146621;602;46020;-87
2021/12/19 02:37:04;;;;;;;;;6.00;5.25;;;;;6.61;53.49;101467.13;146618;595;46016;-77
2021/12/19 02:49:33;;;;;;;;;3.00;3.00;;;;;6.64;52.82;101461.34;146618;606;46016;-83
2021/12/19 02:52:25;;;;;;;;;3.00;3.00;;;;;6.66;53.89;101468.38;146622;596;46020;-86
2021/12/19 02:55:22;;;;;;;;;5.00;5.00;;;;;6.71;54.05;101468.75;146622;584;46012;-81
2021/12/19 02:58:15;;;;;;;;;5.00;4.50;;;;;6.72;53.83;101462.81;146618;629;46010;-86
2021/12/19 03:01:12;;;;;;;;;6.00;5.00;;;;;6.76;53.61;101466.53;146622;606;46012;-76
2021/12/19 03:04:06;;;;;;;;;5.50;4.50;;;;;6.77;54.15;101469.25;146623;616;46010;-74
2021/12/19 03:06:59;;;;;;;;;4.00;4.00;;;;;6.78;53.72;101460.72;146616;558;46016;-71
2021/12/19 03:13:17;;;;;;;;;5.00;4.00;;;;;6.77;53.03;101437.41;146614;648;46016;-74
2021/12/19 03:19:20;;;;;;;;;6.75;4.25;;;;;6.76;52.39;101449.41;146616;699;46016;-80
2021/12/19 03:22:12;;;;;;;;;6.50;4.00;;;;;6.76;52.76;101466.53;146619;635;46021;-80
2021/12/19 03:25:04;;;;;;;;;3.00;2.50;;;;;6.78;52.78;101462.41;146618;579;46016;-79
2021/12/19 03:27:57;;;;;;;;;2.75;2.75;;;;;6.78;52.08;101471.03;146622;596;46020;-74
2021/12/19 03:30:52;;;;;;;;;4.00;4.00;;;;;6.79;52.67;101469.34;146615;613;46016;-75
2021/12/19 03:33:44;;;;;;;;;4.50;3.25;;;;;6.75;51.64;101470.78;146621;584;46026;-75
2021/12/19 03:36:36;;;;;;;;;4.75;4.75;;;;;6.75;52.17;101465.62;146617;599;46017;-74
2021/12/19 03:39:37;;;;;;;;;6.00;4.00;;;;;6.75;52.61;101452.75;146619;565;46020;-75
2021/12/19 03:42:31;;;;;;;;;5.00;5.00;;;;;6.75;52.68;101464.75;146618;573;46013;-76
2021/12/19 03:45:26;;;;;;;;;3.00;3.00;;;;;6.74;51.62;101462.94;146617;602;46020;-76
2021/12/19 03:48:20;;;;;;;;;2.75;2.75;;;;;6.72;52.45;101462.81;146618;569;46035;-76
2021/12/19 03:51:13;;;;;;;;;2.75;0.50;;;;;6.72;50.90;101462.81;146621;580;46014;-76
2021/12/19 03:54:05;;;;;;;;;3.00;3.00;;;;;6.73;51.98;101454.31;146619;588;46012;-76
2021/12/19 03:56:57;;;;;;;;;6.25;4.25;;;;;6.76;51.52;101463.94;146619;588;47014;-81
2021/12/19 03:59:49;;;;;;;;;3.25;3.25;;;;;6.75;51.61;101463.06;146619;599;46016;-85
2021/12/19 04:02:41;;;;;;;;;3.75;3.00;;;;;6.75;51.76;101465.62;146621;579;46010;-77
2021/12/19 04:05:35;;;;;;;;;2.75;2.75;;;;;6.76;51.55;101471.69;146622;599;46032;-75
2021/12/19 04:08:27;;;;;;;;;3.00;3.00;;;;;6.75;51.00;101457.00;146624;575;46010;-77
2021/12/19 04:11:19;;;;;;;;;4.25;4.25;;;;;6.74;52.27;101461.28;146619;569;46016;-76
2021/12/19 04:14:12;;;;;;;;;5.00;2.50;;;;;6.74;52.00;101465.53;146614;565;46021;-76
2021/12/19 04:17:04;;;;;;;;;2.00;2.00;;;;;6.71;51.10;101455.88;146618;582;46012;-77
2021/12/19 04:19:56;;;;;;;;;3.75;2.25;;;;;6.71;50.95;101458.44;146622;591;46019;-80
2021/12/19 04:22:53;;;;;;;;;3.00;3.00;;;;;6.71;50.45;101461.03;146615;626;46016;-80
2021/12/19 04:25:46;;;;;;;;;1.50;1.25;;;;;6.70;50.94;101459.25;146621;571;46010;-79
2021/12/19 04:28:38;;;;;;;;;4.00;2.75;;;;;6.72;51.92;101455.09;146615;611;46017;-81
2021/12/19 04:31:29;;;;;;;;;12.00;11.00;;;;;6.74;50.97;101457.78;146622;569;46020;-78
2021/12/19 04:34:23;;;;;;;;;5.50;5.25;;;;;6.72;51.84;101458.56;146612;584;46015;-77
2021/12/19 04:37:51;;;;;;;;;6.00;5.75;;;;;6.72;51.76;101460.25;146622;637;46010;-78
2021/12/19 04:40:47;;;;;;;;;11.00;9.75;;;;;6.73;51.94;101454.31;146619;627;46014;-78
2021/12/19 04:44:27;;;;;;;;;12.25;11.50;;;;;6.73;53.09;101454.31;146605;685;46021;-78
2021/12/19 04:53:31;;;;;;;;;10.50;9.00;;;;;6.70;52.57;101447.25;146616;640;46037;-79
2021/12/19 04:56:50;;;;;;;;;10.75;9.75;;;;;6.68;52.89;101448.78;146622;572;46010;-79
2021/12/19 05:00:05;;;;;;;;;8.75;8.75;;;;;6.70;52.98;101451.50;146618;570;46016;-81
2021/12/19 05:03:07;;;;;;;;;6.00;6.00;;;;;6.70;53.24;101454.09;146624;620;45020;-81
2021/12/19 05:06:11;;;;;;;;;15.25;14.00;;;;;6.71;52.55;101453.28;146617;655;46017;-80
2021/12/19 05:15:27;;;;;;;;;9.25;8.50;;;;;6.70;52.78;101451.50;146615;601;46010;-84
2021/12/19 05:18:21;;;;;;;;;13.50;12.25;;;;;6.67;53.31;101456.44;146618;628;46016;-78
2021/12/19 05:21:20;;;;;;;;;15.00;12.50;;;;;6.67;53.75;101457.31;146615;582;46010;-78
2021/12/19 05:27:22;;;;;;;;;7.50;7.50;;;;;6.60;52.89;101454.13;146620;566;46021;-78
2021/12/19 05:30:15;;;;;;;;;10.25;10.00;;;;;6.61;54.53;101455.94;146619;604;46014;-80
2021/12/19 05:33:07;;;;;;;;;13.00;11.25;;;;;6.61;54.39;101451.69;146614;620;46010;-81
2021/12/19 05:44:09;;;;;;;;;13.50;12.75;;;;;6.63;54.40;101444.06;146612;634;46016;-86
2021/12/19 05:45:40;;;;;;;;;15.50;11.75;;;;;6.64;53.67;101430.41;146609;588;46014;-82
2021/12/19 05:48:32;;;;;;;;;10.50;10.00;;;;;6.65;54.17;101442.50;146612;573;46016;-82
2021/12/19 05:51:24;;;;;;;;;11.75;9.75;;;;;6.64;53.85;101438.16;146614;586;46020;-77
2021/12/19 05:54:17;;;;;;;;;11.50;9.00;;;;;6.66;54.67;101439.12;146619;617;46012;-79
2021/12/19 05:57:09;;;;;;;;;10.50;9.25;;;;;6.65;53.97;101443.41;146622;600;46010;-78
2021/12/19 06:00:02;;;;;;;;;13.00;11.25;;;;;6.64;54.68;101448.44;146619;625;46014;-72
2021/12/19 06:02:54;;;;;;;;;17.00;16.50;;;;;6.61;54.93;101448.22;146615;570;47010;-73
2021/12/19 06:05:46;;;;;;;;;16.00;12.25;;;;;6.58;54.52;101454.00;146611;566;46017;-72
2021/12/19 06:08:38;;;;;;;;;13.00;10.00;;;;;6.56;54.96;101446.94;146614;602;46010;-73
2021/12/19 06:11:31;;;;;;;;;14.50;14.25;;;;;6.55;55.98;101455.47;146613;600;46914;-73
2021/12/19 06:14:23;;;;;;;;;17.00;15.25;;;;;5.53;55.81;101277.47;146614;614;46020;-81
2021/12/19 06:17:15;;;;;;;;;13.75;11.75;;;;;6.47;55.62;101448.00;146613;627;47015;-81
2021/12/19 06:20:08;;;;;;;;;19.00;17.50;;;;;6.45;55.89;101444.44;146616;730;46010;-80
2021/12/19 06:23:01;;;;;;;;;10.75;8.25;;;;;6.42;55.97;101453.59;146616;600;46012;-82
2021/12/19 06:25:53;;;;;;;;;17.00;12.25;;;;;6.37;56.25;101450.63;146621;645;46014;-80
2021/12/19 06:28:45;;;;;;;;;13.25;10.75;;;;;6.35;56.37;101447.03;146611;609;46016;-84
2021/12/19 06:31:38;;;;;;;;;13.50;11.75;;;;;6.34;56.12;101452.06;146614;583;46020;-86
2021/12/19 06:34:30;;;;;;;;;9.50;8.50;;;;;6.34;56.11;101452.06;146612;648;46014;-79
2021/12/19 06:37:23;;;;;;;;;11.25;8.75;;;;;6.34;55.85;101457.22;146624;569;46020;-79
2021/12/19 06:40:19;;;;;;;;;15.00;13.75;;;;;6.33;55.23;101458.91;146618;564;46012;-79
2021/12/19 06:43:11;;;;;;;;;14.00;11.50;;;;;6.36;56.24;101460.84;146615;578;46010;-78
2021/12/19 06:46:04;;;;;;;;;14.00;11.00;;;;;6.41;56.04;101481.00;146613;701;46012;-82
2021/12/19 06:48:56;;;;;;;;;12.25;10.75;;;;;6.41;56.25;101468.13;146614;721;46011;-80
2021/12/19 06:51:48;;;;;;;;;10.25;8.00;;;;;6.45;56.65;101469.28;146612;589;46012;-82
2021/12/19 06:54:40;;;;;;;;;13.25;11.25;;;;;6.45;57.60;101475.34;146623;604;46021;-82
2021/12/19 06:57:33;;;;;;;;;14.25;10.75;;;;;6.46;56.44;101469.41;146610;584;46016;-82
2021/12/19 07:00:29;;;;;;;;;14.50;11.75;;;;;6.49;57.08;101473.91;146613;564;46020;-83
2021/12/19 07:03:23;;;;;;;;;16.00;14.75;;;;;6.48;57.50;101474.69;146612;608;46016;-82
2021/12/19 07:06:15;;;;;;;;;17.00;14.25;;;;;6.50;57.15;101478.25;146615;580;46029;-84
2021/12/19 07:09:08;;;;;;;;;21.50;19.50;;;;;6.53;56.90;101473.34;146610;610;46016;-78
2021/12/19 07:12:00;;;;;;;;;15.75;14.25;;;;;6.52;57.03;101470.66;146611;571;46010;-77
2021/12/19 07:14:52;;;;;;;;;14.50;14.25;;;;;6.52;57.53;101486.12;146612;678;46016;-89
2021/12/19 07:17:45;;;;;;;;;13.00;12.00;;;;;6.47;56.63;101478.03;146615;569;46020;-86
2021/12/19 07:20:41;;;;;;;;;13.00;13.00;;;;;6.47;56.81;101478.03;146610;569;46035;-80
2021/12/19 07:23:34;;;;;;;;;20.25;17.50;;;;;6.48;56.36;101480.72;146614;574;46020;-80
2021/12/19 07:26:26;;;;;;;;;17.25;16.25;;;;;6.48;55.32;101475.59;146612;572;46016;-78
2021/12/19 07:29:19;;;;;;;;;19.75;17.25;;;;;6.52;56.13;101478.41;146613;604;46010;-76
2021/12/19 07:32:12;;;;;;;;;15.75;14.75;;;;;6.56;56.03;101476.19;146612;622;47015;-79
2021/12/19 07:35:07;;;;;;;;;14.75;13.25;;;;;6.62;55.34;101483.50;146610;654;46014;-78
2021/12/19 07:37:59;;;;;;;;;16.75;16.75;;;;;6.65;54.98;101484.63;146610;603;46016;-78
2021/12/19 07:40:51;;;;;;;;;19.00;15.50;;;;;6.71;54.70;101479.06;146605;625;46011;-78
2021/12/19 07:43:43;;;;;;;;;20.75;18.50;;;;;6.76;54.61;101479.41;146609;614;46016;-77
2021/12/19 07:46:35;;;;;;;;;25.00;18.75;;;;;6.77;54.17;101481.22;146612;617;46010;-76
2021/12/19 07:49:27;;;;;;;;;18.50;16.00;;;;;6.79;53.99;101471.91;146609;644;46017;-75
2021/12/19 07:52:19;;;;;;;;;22.00;18.00;;;;;6.88;53.64;101482.94;146612;574;46020;-80
2021/12/19 07:55:12;;;;;;;;;19.75;15.75;;;;;7.18;53.19;101482.75;146613;584;46017;-79
2021/12/19 07:58:05;;;;;;;;;20.00;16.25;;;;;7.50;52.98;101483.41;146615;622;46010;-83
2021/12/19 08:00:57;;;;;;;;;18.00;17.50;;;;;7.66;51.11;101482.88;146611;600;46016;-84
2021/12/19 08:03:49;;;;;;;;;20.25;17.75;;;;;7.58;50.08;101511.59;146615;624;46011;-81
2021/12/19 08:06:42;;;;;;;;;20.00;18.75;;;;;7.37;49.98;101512.53;146610;668;46012;-81
2021/12/19 08:09:40;;;;;;;;;23.00;20.25;;;;;7.22;50.30;101514.84;146610;585;46021;-81
2021/12/19 08:12:32;;;;;;;;;22.25;19.50;;;;;7.08;49.06;101518.03;146613;569;46016;-82
2021/12/19 08:15:24;;;;;;;;;31.75;28.75;;;;;7.09;50.34;101523.31;146613;705;46020;-81
2021/12/19 08:18:17;;;;;;;;;21.50;20.25;;;;;7.28;46.95;101510.16;146612;597;46017;-76
2021/12/19 08:21:09;;;;;;;;;20.75;19.25;;;;;7.52;49.05;101520.56;146613;589;46010;-80
2021/12/19 08:24:02;;;;;;;;;25.00;21.75;;;;;7.82;46.47;101519.41;146611;575;46016;-87
2021/12/19 08:26:54;;;;;;;;;36.00;29.25;;;;;7.89;47.76;101516.47;146614;581;47014;-85
2021/12/19 08:29:47;;;;;;;;;29.75;26.75;;;;;7.81;46.82;101517.56;146609;574;46016;-78
2021/12/19 08:32:39;;;;;;;;;35.75;34.00;;;;;7.74;47.97;101523.97;146614;591;46021;-80
2021/12/19 08:35:32;;;;;;;;;28.00;26.00;;;;;7.79;45.95;101520.06;146605;590;46914;-80
2021/12/19 08:38:24;;;;;;;;;18.50;17.25;;;;;7.82;46.35;101520.28;146605;636;46020;-85
2021/12/19 08:41:16;;;;;;;;;28.25;26.00;;;;;7.77;46.79;101507.81;146608;618;46014;-81
2021/12/19 08:44:09;;;;;;;;;34.50;29.50;;;;;7.71;47.65;101513.41;146611;582;46010;-80
2021/12/19 08:47:01;;;;;;;;;30.25;26.00;;;;;7.62;48.10;101511.03;146608;802;46914;-81
2021/12/19 08:49:53;;;;;;;;;24.00;22.25;;;;;7.59;47.98;101509.91;146613;567;46010;-79
2021/12/19 08:52:46;;;;;;;;;26.75;26.00;;;;;7.52;47.90;101500.81;146612;582;46014;-80
2021/12/19 08:55:38;;;;;;;;;23.75;22.50;;;;;7.49;48.54;101526.38;146615;583;46011;-79
2021/12/19 08:58:30;;;;;;;;;34.75;30.25;;;;;7.50;48.42;101498.88;146610;612;46016;-77
2021/12/19 09:01:22;;;;;;;;;31.00;29.75;;;;;7.45;48.36;101495.06;146613;612;46029;-78
2021/12/19 09:04:15;;;;;;;;;40.50;35.25;;;;;7.38;49.20;101489.44;146614;625;45914;-78
2021/12/19 09:07:07;;;;;;;;;32.50;30.75;;;;;7.41;49.34;101483.59;146605;666;46010;-86
2021/12/19 09:09:59;;;;;;;;;35.00;31.75;;;;;7.47;49.90;101493.50;146610;629;46017;-80
2021/12/19 09:12:52;;;;;;;;;38.50;34.00;;;;;7.48;49.03;101487.56;146615;608;46010;-75
2021/12/19 09:15:45;;;;;;;;;40.75;34.25;;;;;7.51;49.04;101483.53;146610;553;46914;-75
2021/12/19 09:18:36;;;;;;;;;39.50;33.75;;;;;7.53;49.19;101489.69;146616;583;46008;-75
2021/12/19 09:21:29;;;;;;;;;39.50;33.00;;;;;7.73;48.88;101470.56;146614;613;46012;-74
2021/12/19 09:24:21;;;;;;;;;28.75;27.50;;;;;7.81;47.42;101466.84;146615;666;46010;-73
2021/12/19 09:27:13;;;;;;;;;28.00;21.50;;;;;7.78;47.70;101461.44;146607;681;46016;-74
2021/12/19 09:30:05;;;;;;;;;34.00;33.00;;;;;7.69;48.62;101457.28;146612;589;46020;-73
2021/12/19 09:32:58;;;;;;;;;40.00;35.50;;;;;7.63;48.99;101455.13;146611;599;46016;-73
2021/12/19 09:35:50;;;;;;;;;46.75;37.25;;;;;7.57;49.78;101459.84;146607;577;46010;-72
2021/12/19 09:38:43;;;;;;;;;41.25;36.00;;;;;7.53;49.34;101457.81;146612;701;46017;-73
2021/12/19 09:41:42;;;;;;;;;45.25;33.25;;;;;7.52;49.74;101445.72;146617;570;46014;-73
2021/12/19 09:44:35;;;;;;;;;44.25;36.50;;;;;7.52;49.99;101448.28;146613;598;46016;-75
2021/12/19 09:47:27;;;;;;;;;38.50;35.25;;;;;7.51;51.03;101433.63;146613;596;46031;-73
2021/12/19 09:50:19;;;;;;;;;46.25;38.00;;;;;7.53;50.81;101429.44;146610;588;46012;-73
2021/12/19 09:53:12;;;;;;;;;44.75;36.25;;;;;7.55;49.84;101430.47;146614;572;46020;-73
2021/12/19 09:56:04;;;;;;;;;50.25;38.75;;;;;7.56;50.59;101427.97;146612;610;46014;-73
2021/12/19 09:58:56;;;;;;;;;28.75;25.00;;;;;7.58;49.02;101418.69;146614;564;46020;-73
2021/12/19 10:01:50;;;;;;;;;40.50;34.25;;;;;7.62;50.33;101412.06;146613;598;46016;-73
2021/12/19 10:04:47;;;;;;;;;44.50;37.25;;;;;7.64;50.69;101411.41;146609;579;46020;-74
2021/12/19 10:07:51;;;;;;;;;57.25;46.50;;;;;7.68;51.24;101415.09;146613;589;46012;-72
2021/12/19 10:10:53;;;;;;;;;53.00;42.00;;;;;7.75;50.81;101408.69;146615;617;46010;-72
2021/12/19 10:13:45;;;;;;;;;52.00;38.75;;;;;7.83;50.39;101397.25;146611;734;47014;-73
2021/12/19 10:16:37;;;;;;;;;49.25;38.50;;;;;8.13;50.98;101392.50;146614;566;46021;-73
2021/12/19 10:19:55;;;;;;;;;44.50;36.00;;;;;8.79;49.90;101379.97;146608;566;46016;-72
2021/12/19 10:22:52;;;;;;;;;33.25;30.50;;;;;9.48;49.69;101375.16;146615;582;46010;-71
2021/12/19 10:25:44;;;;;;;;;61.50;46.75;;;;;10.13;47.62;101366.38;146610;616;46012;-72
2021/12/19 10:28:37;;;;;;;;;28.75;25.50;;;;;10.70;47.78;101350.03;146616;646;46010;-72
2021/12/19 10:31:32;;;;;;;;;21.00;20.00;;;;;11.26;45.04;101347.31;146612;605;46013;-74
2021/12/19 10:34:27;;;;;;;;;36.25;31.25;;;;;11.69;45.11;101339.41;146609;634;46010;-73
2021/12/19 10:37:36;;;;;;;;;34.00;26.50;;;;;12.01;43.78;101337.75;146612;596;46016;-73
2021/12/19 10:40:29;;;;;;;;;22.75;21.75;;;;;12.06;42.78;101325.00;146614;659;46010;-73
2021/12/19 10:43:24;;;;;;;;;28.25;23.75;;;;;11.84;39.54;101316.00;146612;577;46012;-74
2021/12/19 10:46:17;;;;;;;;;22.00;20.00;;;;;11.44;40.67;101325.84;146617;594;45021;-72
2021/12/19 10:49:29;;;;;;;;;19.00;19.00;;;;;11.15;42.17;101326.72;146611;679;46016;-72
2021/12/19 10:52:35;;;;;;;;;24.50;21.00;;;;;11.00;43.48;101314.66;146615;658;46010;-72
2021/12/19 10:55:32;;;;;;;;;19.50;18.00;;;;;10.82;41.88;101304.09;146610;577;46016;-72
2021/12/19 10:58:27;;;;;;;;;26.75;23.00;;;;;10.58;41.15;101303.50;146612;578;46020;-72
2021/12/19 11:01:44;;;;;;;;;36.00;31.25;;;;;10.44;44.37;101296.62;146610;608;46017;-72
2021/12/19 11:04:39;;;;;;;;;25.50;24.25;;;;;10.51;42.84;101284.91;146612;588;46020;-72
2021/12/19 11:07:31;;;;;;;;;39.50;35.50;;;;;10.66;42.98;101291.03;146611;572;46012;-72
2021/12/19 11:10:31;;;;;;;;;15.50;15.50;;;;;10.78;43.88;101283.09;146614;570;46020;-72
2021/12/19 11:13:23;;;;;;;;;19.00;16.25;;;;;10.89;42.35;101283.69;146613;602;45914;-72
2021/12/19 11:16:15;;;;;;;;;24.75;21.00;;;;;10.92;41.97;101278.69;146612;619;46014;-72
2021/12/19 11:19:07;;;;;;;;;29.25;25.25;;;;;10.86;41.86;101277.50;146606;594;47014;-73
2021/12/19 11:22:00;;;;;;;;;25.75;23.50;;;;;10.74;41.81;101265.53;146614;592;46015;-72
2021/12/19 11:24:52;;;;;;;;;24.00;20.50;;;;;10.69;41.86;101264.37;146610;569;46012;-72
2021/12/19 11:27:48;;;;;;;;;31.50;28.75;;;;;10.73;42.48;101261.16;146613;621;46010;-73
2021/12/19 11:30:40;;;;;;;;;21.75;20.00;;;;;11.04;43.38;101262.12;146610;591;46016;-71
2021/12/19 11:34:33;;;;;;;;;34.00;29.25;;;;;11.54;44.49;101251.13;146608;582;46020;-73
2021/12/19 11:37:35;;;;;;;;;26.25;24.50;;;;;11.99;41.16;101236.31;146610;574;46012;-73
2021/12/19 11:40:30;;;;;;;;;18.50;18.25;;;;;12.21;38.41;101240.00;146614;581;46020;-73
2021/12/19 11:43:22;;;;;;;;;15.75;12.25;;;;;12.41;39.61;101241.97;146611;564;46012;-73
2021/12/19 11:46:21;;;;;;;;;33.25;27.75;;;;;12.70;39.67;101234.75;146614;578;46010;-73
2021/12/19 11:49:25;;;;;;;;;22.25;21.00;;;;;13.12;39.32;101224.72;146611;573;46016;-72
2021/12/19 11:52:30;;;;;;;;;22.50;19.25;;;;;13.27;40.69;101220.28;146614;610;46011;-72
2021/12/19 11:55:28;;;;;;;;;21.75;16.75;;;;;13.26;37.91;101201.97;146609;565;46012;-72
2021/12/19 11:58:32;;;;;;;;;30.50;25.00;;;;;13.39;38.63;101207.84;146613;577;46020;-72
2021/12/19 12:01:30;;;;;;;;;20.75;18.00;;;;;13.59;36.82;101206.16;146609;573;46914;-73
2021/12/19 12:04:25;;;;;;;;;24.25;21.00;;;;;13.53;34.91;101186.75;146607;571;46029;-73
2021/12/19 12:07:18;;;;;;;;;11.75;11.50;;;;;13.53;35.98;101200.66;146610;584;46016;-72
2021/12/19 12:10:10;;;;;;;;;20.00;19.00;;;;;13.61;36.83;101185.38;146612;613;46010;-73
2021/12/19 12:13:02;;;;;;;;;19.00;15.50;;;;;13.61;35.71;101185.38;146609;605;46914;-73
2021/12/19 12:16:03;;;;;;;;;21.00;16.75;;;;;13.56;36.75;101187.78;146611;588;46010;-73
2021/12/19 12:19:05;;;;;;;;;17.75;17.75;;;;;13.79;37.26;101186.22;146611;591;46016;-72
2021/12/19 12:21:57;;;;;;;;;12.75;10.00;;;;;14.04;36.14;101189.94;146616;600;46010;-71
2021/12/19 12:25:30;;;;;;;;;18.00;15.50;;;;;14.32;39.18;101181.59;146613;569;46016;-72
2021/12/19 12:28:23;;;;;;;;;24.00;21.00;;;;;14.73;36.97;101178.16;146613;570;46021;-71
2021/12/19 12:31:16;;;;;;;;;34.50;27.25;;;;;14.94;36.35;101182.50;146609;619;46016;-71
2021/12/19 12:34:12;;;;;;;;;15.00;13.00;;;;;15.15;36.42;101172.94;146608;604;47014;-72
2021/12/19 12:37:05;;;;;;;;;8.00;7.00;;;;;15.36;35.36;101175.50;146612;606;45914;-71
2021/12/19 12:40:24;;;;;;;;;56.75;45.25;;;;;15.53;40.25;101167.41;146621;580;46020;-71
2021/12/19 12:43:28;;;;;;;;;39.50;31.50;;;;;15.54;36.36;101159.59;146610;584;47013;-71
2021/12/19 12:46:22;;;;;;;;;37.25;33.25;;;;;15.64;35.77;101159.16;146613;569;46010;-73
2021/12/19 12:49:26;;;;;;;;;30.75;29.50;;;;;15.84;36.88;101153.78;146611;599;46014;-71
2021/12/19 12:52:18;;;;;;;;;18.00;16.50;;;;;16.01;33.11;101157.94;146614;602;46010;-72
2021/12/19 12:55:13;;;;;;;;;19.00;17.75;;;;;16.00;33.86;101150.00;146612;613;47014;-72
2021/12/19 12:58:19;;;;;;;;;19.25;18.75;;;;;15.90;37.39;101154.91;146614;598;46010;-72
2021/12/19 13:01:35;;;;;;;;;33.00;29.50;;;;;15.91;38.32;101148.81;146610;634;46035;-72
2021/12/19 13:04:31;;;;;;;;;18.75;16.00;;;;;16.13;35.45;101152.22;146609;617;46010;-72
2021/12/19 13:07:28;;;;;;;;;17.25;16.25;;;;;16.32;35.18;101140.66;146611;694;46014;-72
2021/12/19 13:10:20;;;;;;;;;15.75;12.25;;;;;16.46;34.58;101135.91;146614;565;46020;-72
2021/12/19 13:13:12;;;;;;;;;19.75;19.25;;;;;16.48;34.38;101135.16;146607;609;46015;-72
2021/12/19 13:16:08;;;;;;;;;23.25;21.50;;;;;16.44;35.18;101135.84;146611;695;46014;-72
2021/12/19 13:19:00;;;;;;;;;18.75;17.25;;;;;16.42;34.22;101127.06;146611;591;46016;-72
2021/12/19 13:21:59;;;;;;;;;27.75;26.25;;;;;16.47;35.30;101129.84;146615;572;46021;-72
2021/12/19 13:24:53;;;;;;;;;18.50;17.25;;;;;16.40;32.86;101126.13;146612;666;46014;-73
2021/12/19 13:27:52;;;;;;;;;23.00;19.50;;;;;16.32;33.70;101120.66;146615;605;45021;-71
2021/12/19 13:30:46;;;;;;;;;26.75;23.75;;;;;16.24;35.07;101124.72;146610;587;47012;-72
2021/12/19 13:33:39;;;;;;;;;14.00;14.00;;;;;16.11;31.32;101112.06;146607;570;46020;-72
2021/12/19 13:36:31;;;;;;;;;19.50;18.25;;;;;15.86;33.37;101112.91;146611;718;46016;-71
2021/12/19 13:39:23;;;;;;;;;24.00;21.25;;;;;15.66;33.34;101114.75;146615;680;46010;-73
2021/12/19 13:42:19;;;;;;;;;20.00;16.50;;;;;15.62;34.85;101118.97;146609;658;46013;-72
2021/12/19 13:45:30;;;;;;;;;29.00;25.75;;;;;15.63;37.37;101110.28;146612;593;46020;-72
2021/12/19 13:48:54;;;;;;;;;23.75;22.00;;;;;15.59;35.74;101112.75;146610;641;46016;-72
2021/12/19 13:51:46;;;;;;;;;25.00;23.25;;;;;15.55;35.94;101105.66;146614;569;46021;-72
2021/12/19 13:54:40;;;;;;;;;26.50;24.25;;;;;15.63;35.33;101107.69;146609;587;46914;-72
2021/12/19 13:57:32;;;;;;;;;26.00;24.00;;;;;15.62;33.76;101098.06;146613;597;46021;-72
2021/12/19 14:00:46;;;;;;;;;25.25;22.75;;;;;15.47;37.10;101101.00;146612;597;46014;-71
2021/12/19 14:03:59;;;;;;;;;25.50;23.75;;;;;15.38;37.37;101097.16;146608;606;46010;-72
2021/12/19 14:06:53;;;;;;;;;23.75;23.00;;;;;15.30;35.45;101088.16;146607;612;46012;-72
2021/12/19 14:09:51;;;;;;;;;33.50;28.75;;;;;15.24;33.46;101088.81;146610;603;46918;-72